Pelzer, South Carolina
Current Conditions -  °F | °C
As of 8:47 AM on Friday 19 Dec 2014 (Local Time) from KGYH Reporting Station
Clear Clear  
Wind Chill: 37°   Ceiling: Unl
Heat Index: 41°   Visibility: 10mi
Dew Point: 27°   Wind: 6mph
Humidity: 57%   Direction: 50°NE
Pressure: 30.16"   Gusts: NA
Location:  34.64°N, 82.46°W
Report Text: KGYH 191347Z 05005KT 10SM CLR 05/M03 A3016
Loading
Personal Weather Stations






























Interactive Weather Map New forecast layout! Learn more

10-Day Weather Forecast

Advertisements
Track Severe Weather on mobile